sensor_id;sensor_type;location;lat;lon;timestamp;P1;durP1;ratioP1;P2;durP2;ratioP2
28756;SDS011;44294;48.282;14.282;2022-11-20T00:00:47;34.50;;;17.60;;
28756;SDS011;44294;48.282;14.282;2022-11-20T00:03:34;32.53;;;17.13;;
28756;SDS011;44294;48.282;14.282;2022-11-20T00:06:22;33.97;;;17.03;;
28756;SDS011;44294;48.282;14.282;2022-11-20T00:09:09;31.43;;;17.03;;
28756;SDS011;44294;48.282;14.282;2022-11-20T00:11:57;31.30;;;16.20;;
28756;SDS011;44294;48.282;14.282;2022-11-20T00:14:44;35.00;;;18.57;;
28756;SDS011;44294;48.282;14.282;2022-11-20T00:17:31;34.27;;;17.43;;
28756;SDS011;44294;48.282;14.282;2022-11-20T00:20:19;32.97;;;17.00;;
28756;SDS011;44294;48.282;14.282;2022-11-20T00:23:06;32.80;;;16.87;;
28756;SDS011;44294;48.282;14.282;2022-11-20T00:25:53;35.63;;;17.43;;
28756;SDS011;44294;48.282;14.282;2022-11-20T00:28:41;31.83;;;17.10;;
28756;SDS011;44294;48.282;14.282;2022-11-20T00:31:29;32.47;;;16.83;;
28756;SDS011;44294;48.282;14.282;2022-11-20T00:34:17;30.77;;;16.70;;
28756;SDS011;44294;48.282;14.282;2022-11-20T00:37:04;34.60;;;16.93;;
28756;SDS011;44294;48.282;14.282;2022-11-20T00:39:51;31.40;;;16.10;;
28756;SDS011;44294;48.282;14.282;2022-11-20T00:42:39;30.93;;;16.47;;
28756;SDS011;44294;48.282;14.282;2022-11-20T00:45:26;31.47;;;16.20;;
28756;SDS011;44294;48.282;14.282;2022-11-20T00:48:13;32.93;;;17.30;;
28756;SDS011;44294;48.282;14.282;2022-11-20T00:51:00;36.77;;;18.47;;
28756;SDS011;44294;48.282;14.282;2022-11-20T00:53:48;33.40;;;17.53;;
28756;SDS011;44294;48.282;14.282;2022-11-20T00:56:36;33.20;;;16.87;;
28756;SDS011;44294;48.282;14.282;2022-11-20T00:59:23;35.07;;;18.17;;
28756;SDS011;44294;48.282;14.282;2022-11-20T01:02:10;38.17;;;19.77;;
28756;SDS011;44294;48.282;14.282;2022-11-20T01:04:58;42.43;;;19.80;;
28756;SDS011;44294;48.282;14.282;2022-11-20T01:07:45;34.50;;;17.87;;
28756;SDS011;44294;48.282;14.282;2022-11-20T01:10:32;37.40;;;18.53;;
28756;SDS011;44294;48.282;14.282;2022-11-20T01:13:19;31.73;;;17.23;;
28756;SDS011;44294;48.282;14.282;2022-11-20T01:16:31;33.67;;;16.63;;
28756;SDS011;44294;48.282;14.282;2022-11-20T01:19:15;32.80;;;17.87;;
28756;SDS011;44294;48.282;14.282;2022-11-20T01:22:03;30.80;;;16.63;;
28756;SDS011;44294;48.282;14.282;2022-11-20T01:24:50;34.93;;;17.80;;
28756;SDS011;44294;48.282;14.282;2022-11-20T01:27:37;35.07;;;17.77;;
28756;SDS011;44294;48.282;14.282;2022-11-20T01:30:25;36.10;;;17.70;;
28756;SDS011;44294;48.282;14.282;2022-11-20T01:33:12;34.77;;;18.13;;
28756;SDS011;44294;48.282;14.282;2022-11-20T01:36:03;37.27;;;18.30;;
28756;SDS011;44294;48.282;14.282;2022-11-20T01:38:52;37.93;;;18.40;;
28756;SDS011;44294;48.282;14.282;2022-11-20T01:41:40;37.27;;;18.67;;
28756;SDS011;44294;48.282;14.282;2022-11-20T01:44:47;40.67;;;20.13;;
28756;SDS011;44294;48.282;14.282;2022-11-20T01:47:41;44.93;;;20.67;;
28756;SDS011;44294;48.282;14.282;2022-11-20T01:50:29;34.20;;;17.87;;
28756;SDS011;44294;48.282;14.282;2022-11-20T01:53:17;35.87;;;18.23;;
28756;SDS011;44294;48.282;14.282;2022-11-20T01:56:06;34.23;;;18.00;;
28756;SDS011;44294;48.282;14.282;2022-11-20T01:58:55;38.93;;;19.47;;
28756;SDS011;44294;48.282;14.282;2022-11-20T02:01:42;36.63;;;18.27;;
28756;SDS011;44294;48.282;14.282;2022-11-20T02:04:30;36.10;;;18.40;;
28756;SDS011;44294;48.282;14.282;2022-11-20T02:07:17;39.77;;;19.10;;
28756;SDS011;44294;48.282;14.282;2022-11-20T02:10:05;36.30;;;18.70;;
28756;SDS011;44294;48.282;14.282;2022-11-20T02:12:52;38.13;;;18.87;;
28756;SDS011;44294;48.282;14.282;2022-11-20T02:15:58;38.63;;;18.77;;
28756;SDS011;44294;48.282;14.282;2022-11-20T02:18:46;37.13;;;18.87;;
28756;SDS011;44294;48.282;14.282;2022-11-20T02:21:40;39.20;;;19.40;;
28756;SDS011;44294;48.282;14.282;2022-11-20T02:24:26;42.83;;;21.03;;
28756;SDS011;44294;48.282;14.282;2022-11-20T02:27:14;36.43;;;18.83;;
28756;SDS011;44294;48.282;14.282;2022-11-20T02:30:05;36.87;;;19.43;;
28756;SDS011;44294;48.282;14.282;2022-11-20T02:32:57;37.07;;;18.77;;
28756;SDS011;44294;48.282;14.282;2022-11-20T02:35:45;35.60;;;18.50;;
28756;SDS011;44294;48.282;14.282;2022-11-20T02:38:33;38.70;;;19.17;;
28756;SDS011;44294;48.282;14.282;2022-11-20T02:41:20;37.77;;;19.47;;
28756;SDS011;44294;48.282;14.282;2022-11-20T02:44:08;37.77;;;19.23;;
28756;SDS011;44294;48.282;14.282;2022-11-20T02:46:56;35.03;;;18.17;;
28756;SDS011;44294;48.282;14.282;2022-11-20T02:49:44;36.83;;;18.80;;
28756;SDS011;44294;48.282;14.282;2022-11-20T02:52:32;37.20;;;19.27;;
28756;SDS011;44294;48.282;14.282;2022-11-20T02:55:19;41.37;;;20.43;;
28756;SDS011;44294;48.282;14.282;2022-11-20T02:58:06;45.33;;;21.97;;
28756;SDS011;44294;48.282;14.282;2022-11-20T03:00:54;37.50;;;19.10;;
28756;SDS011;44294;48.282;14.282;2022-11-20T03:03:41;46.00;;;21.87;;
28756;SDS011;44294;48.282;14.282;2022-11-20T03:06:28;38.73;;;19.57;;
28756;SDS011;44294;48.282;14.282;2022-11-20T03:09:16;38.10;;;19.97;;
28756;SDS011;44294;48.282;14.282;2022-11-20T03:12:03;43.60;;;21.67;;
28756;SDS011;44294;48.282;14.282;2022-11-20T03:14:51;37.47;;;19.07;;
28756;SDS011;44294;48.282;14.282;2022-11-20T03:17:38;38.80;;;18.47;;
28756;SDS011;44294;48.282;14.282;2022-11-20T03:20:25;37.63;;;18.93;;
28756;SDS011;44294;48.282;14.282;2022-11-20T03:23:13;39.00;;;19.10;;
28756;SDS011;44294;48.282;14.282;2022-11-20T03:26:12;40.97;;;19.67;;
28756;SDS011;44294;48.282;14.282;2022-11-20T03:28:59;36.63;;;18.90;;
28756;SDS011;44294;48.282;14.282;2022-11-20T03:31:47;39.97;;;18.40;;
28756;SDS011;44294;48.282;14.282;2022-11-20T03:34:34;35.33;;;17.83;;
28756;SDS011;44294;48.282;14.282;2022-11-20T03:37:22;34.10;;;17.57;;
28756;SDS011;44294;48.282;14.282;2022-11-20T03:40:09;37.23;;;18.50;;
28756;SDS011;44294;48.282;14.282;2022-11-20T03:42:57;39.90;;;19.03;;
28756;SDS011;44294;48.282;14.282;2022-11-20T03:45:44;31.47;;;16.77;;
28756;SDS011;44294;48.282;14.282;2022-11-20T03:48:31;37.70;;;19.37;;
28756;SDS011;44294;48.282;14.282;2022-11-20T03:51:23;40.47;;;20.47;;
28756;SDS011;44294;48.282;14.282;2022-11-20T03:54:10;33.47;;;17.43;;
28756;SDS011;44294;48.282;14.282;2022-11-20T03:56:57;41.30;;;20.73;;
28756;SDS011;44294;48.282;14.282;2022-11-20T03:59:45;38.23;;;19.20;;
28756;SDS011;44294;48.282;14.282;2022-11-20T04:02:32;39.47;;;20.10;;
28756;SDS011;44294;48.282;14.282;2022-11-20T04:05:20;34.27;;;18.03;;
28756;SDS011;44294;48.282;14.282;2022-11-20T04:08:07;30.90;;;16.53;;
28756;SDS011;44294;48.282;14.282;2022-11-20T04:10:54;37.43;;;18.73;;
28756;SDS011;44294;48.282;14.282;2022-11-20T04:13:42;32.20;;;16.80;;
28756;SDS011;44294;48.282;14.282;2022-11-20T04:16:30;40.27;;;19.87;;
28756;SDS011;44294;48.282;14.282;2022-11-20T04:19:18;33.57;;;17.73;;
28756;SDS011;44294;48.282;14.282;2022-11-20T04:22:05;31.97;;;16.47;;
28756;SDS011;44294;48.282;14.282;2022-11-20T04:24:52;33.97;;;16.93;;
28756;SDS011;44294;48.282;14.282;2022-11-20T04:27:40;36.63;;;18.00;;
28756;SDS011;44294;48.282;14.282;2022-11-20T04:30:27;35.50;;;18.00;;
28756;SDS011;44294;48.282;14.282;2022-11-20T04:33:15;31.20;;;16.60;;
28756;SDS011;44294;48.282;14.282;2022-11-20T04:36:03;32.07;;;16.67;;
28756;SDS011;44294;48.282;14.282;2022-11-20T04:38:54;33.00;;;17.07;;
28756;SDS011;44294;48.282;14.282;2022-11-20T04:41:42;32.93;;;18.00;;
28756;SDS011;44294;48.282;14.282;2022-11-20T04:44:30;33.93;;;17.13;;
28756;SDS011;44294;48.282;14.282;2022-11-20T04:47:17;32.27;;;17.17;;
28756;SDS011;44294;48.282;14.282;2022-11-20T04:50:04;33.97;;;17.10;;
28756;SDS011;44294;48.282;14.282;2022-11-20T04:52:52;31.03;;;16.57;;
28756;SDS011;44294;48.282;14.282;2022-11-20T04:55:39;34.07;;;17.53;;
28756;SDS011;44294;48.282;14.282;2022-11-20T04:58:27;31.77;;;16.63;;
28756;SDS011;44294;48.282;14.282;2022-11-20T05:01:21;36.47;;;18.17;;
28756;SDS011;44294;48.282;14.282;2022-11-20T05:04:08;33.60;;;16.73;;
28756;SDS011;44294;48.282;14.282;2022-11-20T05:06:56;32.23;;;17.13;;
28756;SDS011;44294;48.282;14.282;2022-11-20T05:09:43;31.20;;;16.67;;
28756;SDS011;44294;48.282;14.282;2022-11-20T05:12:31;29.90;;;16.13;;
28756;SDS011;44294;48.282;14.282;2022-11-20T05:15:18;32.60;;;16.57;;
28756;SDS011;44294;48.282;14.282;2022-11-20T05:18:05;31.53;;;16.63;;
28756;SDS011;44294;48.282;14.282;2022-11-20T05:20:57;31.43;;;16.57;;
28756;SDS011;44294;48.282;14.282;2022-11-20T05:23:44;32.03;;;16.77;;
28756;SDS011;44294;48.282;14.282;2022-11-20T05:26:32;29.73;;;15.83;;
28756;SDS011;44294;48.282;14.282;2022-11-20T05:29:20;34.03;;;17.13;;
28756;SDS011;44294;48.282;14.282;2022-11-20T05:32:07;33.33;;;17.10;;
28756;SDS011;44294;48.282;14.282;2022-11-20T05:34:55;31.93;;;16.83;;
28756;SDS011;44294;48.282;14.282;2022-11-20T05:37:43;31.13;;;16.23;;
28756;SDS011;44294;48.282;14.282;2022-11-20T05:40:30;30.60;;;16.60;;
28756;SDS011;44294;48.282;14.282;2022-11-20T05:43:17;31.17;;;16.30;;
28756;SDS011;44294;48.282;14.282;2022-11-20T05:46:05;32.60;;;17.23;;
28756;SDS011;44294;48.282;14.282;2022-11-20T05:48:53;30.03;;;15.67;;
28756;SDS011;44294;48.282;14.282;2022-11-20T05:51:40;31.77;;;16.47;;
28756;SDS011;44294;48.282;14.282;2022-11-20T05:54:27;29.80;;;15.90;;
28756;SDS011;44294;48.282;14.282;2022-11-20T05:57:15;30.50;;;16.00;;
28756;SDS011;44294;48.282;14.282;2022-11-20T06:00:03;29.50;;;15.67;;
28756;SDS011;44294;48.282;14.282;2022-11-20T06:02:50;29.67;;;16.33;;
28756;SDS011;44294;48.282;14.282;2022-11-20T06:05:38;22.40;;;12.47;;
28756;SDS011;44294;48.282;14.282;2022-11-20T06:08:25;22.67;;;13.07;;
28756;SDS011;44294;48.282;14.282;2022-11-20T06:11:13;24.03;;;13.40;;
28756;SDS011;44294;48.282;14.282;2022-11-20T06:14:00;23.20;;;13.53;;
28756;SDS011;44294;48.282;14.282;2022-11-20T06:16:48;21.10;;;12.87;;
28756;SDS011;44294;48.282;14.282;2022-11-20T06:19:35;21.90;;;12.70;;
28756;SDS011;44294;48.282;14.282;2022-11-20T06:22:22;22.77;;;13.33;;
28756;SDS011;44294;48.282;14.282;2022-11-20T06:25:10;21.53;;;12.70;;
28756;SDS011;44294;48.282;14.282;2022-11-20T06:27:57;22.80;;;12.63;;
28756;SDS011;44294;48.282;14.282;2022-11-20T06:30:44;22.87;;;12.90;;
28756;SDS011;44294;48.282;14.282;2022-11-20T06:33:32;22.53;;;12.50;;
28756;SDS011;44294;48.282;14.282;2022-11-20T06:36:20;21.37;;;12.60;;
28756;SDS011;44294;48.282;14.282;2022-11-20T06:39:08;21.47;;;12.83;;
28756;SDS011;44294;48.282;14.282;2022-11-20T06:41:55;22.77;;;13.33;;
28756;SDS011;44294;48.282;14.282;2022-11-20T06:44:43;19.97;;;12.37;;
28756;SDS011;44294;48.282;14.282;2022-11-20T06:47:31;21.63;;;13.00;;
28756;SDS011;44294;48.282;14.282;2022-11-20T06:50:18;22.50;;;13.17;;
28756;SDS011;44294;48.282;14.282;2022-11-20T06:53:05;23.03;;;12.60;;
28756;SDS011;44294;48.282;14.282;2022-11-20T06:55:55;21.57;;;12.63;;
28756;SDS011;44294;48.282;14.282;2022-11-20T06:58:41;22.13;;;12.77;;
28756;SDS011;44294;48.282;14.282;2022-11-20T07:01:29;21.80;;;12.60;;
28756;SDS011;44294;48.282;14.282;2022-11-20T07:04:16;21.93;;;13.43;;
28756;SDS011;44294;48.282;14.282;2022-11-20T07:07:03;22.13;;;13.10;;
28756;SDS011;44294;48.282;14.282;2022-11-20T07:09:52;23.97;;;14.13;;
28756;SDS011;44294;48.282;14.282;2022-11-20T07:12:39;23.10;;;13.70;;
28756;SDS011;44294;48.282;14.282;2022-11-20T07:15:27;25.17;;;14.53;;
28756;SDS011;44294;48.282;14.282;2022-11-20T07:18:14;17.97;;;10.73;;
28756;SDS011;44294;48.282;14.282;2022-11-20T07:21:06;16.63;;;9.93;;
28756;SDS011;44294;48.282;14.282;2022-11-20T07:23:54;18.17;;;10.50;;
28756;SDS011;44294;48.282;14.282;2022-11-20T07:26:41;16.17;;;9.83;;
28756;SDS011;44294;48.282;14.282;2022-11-20T07:29:28;16.47;;;10.07;;
28756;SDS011;44294;48.282;14.282;2022-11-20T07:32:16;18.63;;;10.93;;
28756;SDS011;44294;48.282;14.282;2022-11-20T07:35:03;17.60;;;10.30;;
28756;SDS011;44294;48.282;14.282;2022-11-20T07:37:51;16.80;;;10.30;;
28756;SDS011;44294;48.282;14.282;2022-11-20T07:40:38;18.60;;;10.53;;
28756;SDS011;44294;48.282;14.282;2022-11-20T07:43:25;17.63;;;10.63;;
28756;SDS011;44294;48.282;14.282;2022-11-20T07:46:13;16.13;;;10.30;;
28756;SDS011;44294;48.282;14.282;2022-11-20T07:49:00;17.87;;;10.53;;
28756;SDS011;44294;48.282;14.282;2022-11-20T07:51:50;16.20;;;10.07;;
28756;SDS011;44294;48.282;14.282;2022-11-20T07:54:36;15.53;;;9.67;;
28756;SDS011;44294;48.282;14.282;2022-11-20T07:57:24;17.50;;;9.70;;
28756;SDS011;44294;48.282;14.282;2022-11-20T08:00:11;15.87;;;9.93;;
28756;SDS011;44294;48.282;14.282;2022-11-20T08:02:59;17.20;;;10.20;;
28756;SDS011;44294;48.282;14.282;2022-11-20T08:05:46;16.87;;;10.50;;
28756;SDS011;44294;48.282;14.282;2022-11-20T08:08:33;17.10;;;10.43;;
28756;SDS011;44294;48.282;14.282;2022-11-20T08:11:21;17.73;;;10.63;;
28756;SDS011;44294;48.282;14.282;2022-11-20T08:14:26;17.53;;;10.57;;
28756;SDS011;44294;48.282;14.282;2022-11-20T08:17:14;17.13;;;10.67;;
28756;SDS011;44294;48.282;14.282;2022-11-20T08:20:01;17.20;;;10.43;;
28756;SDS011;44294;48.282;14.282;2022-11-20T08:22:48;17.40;;;10.20;;
28756;SDS011;44294;48.282;14.282;2022-11-20T08:25:36;19.73;;;10.57;;
28756;SDS011;44294;48.282;14.282;2022-11-20T08:28:24;18.60;;;11.07;;
28756;SDS011;44294;48.282;14.282;2022-11-20T08:31:11;16.53;;;10.53;;
28756;SDS011;44294;48.282;14.282;2022-11-20T08:33:58;17.67;;;10.70;;
28756;SDS011;44294;48.282;14.282;2022-11-20T08:36:46;19.83;;;11.57;;
28756;SDS011;44294;48.282;14.282;2022-11-20T08:39:33;22.73;;;12.47;;
28756;SDS011;44294;48.282;14.282;2022-11-20T08:42:20;17.23;;;10.70;;
28756;SDS011;44294;48.282;14.282;2022-11-20T08:45:08;18.83;;;10.80;;
28756;SDS011;44294;48.282;14.282;2022-11-20T08:47:59;20.57;;;11.20;;
28756;SDS011;44294;48.282;14.282;2022-11-20T08:50:44;18.30;;;10.73;;
28756;SDS011;44294;48.282;14.282;2022-11-20T08:53:31;18.90;;;11.83;;
28756;SDS011;44294;48.282;14.282;2022-11-20T08:56:19;65.53;;;32.27;;
28756;SDS011;44294;48.282;14.282;2022-11-20T08:59:06;57.30;;;26.43;;
28756;SDS011;44294;48.282;14.282;2022-11-20T09:01:53;50.13;;;23.50;;
28756;SDS011;44294;48.282;14.282;2022-11-20T09:04:40;47.53;;;23.63;;
28756;SDS011;44294;48.282;14.282;2022-11-20T09:07:28;50.47;;;24.27;;
28756;SDS011;44294;48.282;14.282;2022-11-20T09:10:16;48.37;;;24.00;;
28756;SDS011;44294;48.282;14.282;2022-11-20T09:13:03;54.17;;;25.43;;
28756;SDS011;44294;48.282;14.282;2022-11-20T09:15:57;50.27;;;23.60;;
28756;SDS011;44294;48.282;14.282;2022-11-20T09:18:45;49.60;;;23.43;;
28756;SDS011;44294;48.282;14.282;2022-11-20T09:21:32;44.67;;;22.63;;
28756;SDS011;44294;48.282;14.282;2022-11-20T09:24:20;50.33;;;24.27;;
28756;SDS011;44294;48.282;14.282;2022-11-20T09:27:07;47.37;;;22.97;;
28756;SDS011;44294;48.282;14.282;2022-11-20T09:29:55;64.93;;;30.57;;
28756;SDS011;44294;48.282;14.282;2022-11-20T09:32:42;54.63;;;26.20;;
28756;SDS011;44294;48.282;14.282;2022-11-20T09:35:29;65.70;;;29.20;;
28756;SDS011;44294;48.282;14.282;2022-11-20T09:38:17;60.37;;;28.57;;
28756;SDS011;44294;48.282;14.282;2022-11-20T09:41:05;58.97;;;28.90;;
28756;SDS011;44294;48.282;14.282;2022-11-20T09:43:57;65.27;;;30.53;;
28756;SDS011;44294;48.282;14.282;2022-11-20T09:49:51;54.50;;;26.60;;
28756;SDS011;44294;48.282;14.282;2022-11-20T09:52:41;53.53;;;26.33;;
28756;SDS011;44294;48.282;14.282;2022-11-20T09:55:26;52.83;;;26.17;;
28756;SDS011;44294;48.282;14.282;2022-11-20T10:01:23;52.03;;;25.73;;
28756;SDS011;44294;48.282;14.282;2022-11-20T10:04:15;45.77;;;24.63;;
28756;SDS011;44294;48.282;14.282;2022-11-20T10:07:04;47.67;;;24.77;;
28756;SDS011;44294;48.282;14.282;2022-11-20T10:09:52;47.33;;;23.73;;
28756;SDS011;44294;48.282;14.282;2022-11-20T10:24:44;44.07;;;23.77;;
28756;SDS011;44294;48.282;14.282;2022-11-20T10:27:38;46.43;;;24.13;;
28756;SDS011;44294;48.282;14.282;2022-11-20T10:30:24;44.63;;;22.70;;
28756;SDS011;44294;48.282;14.282;2022-11-20T10:33:13;47.13;;;24.17;;
28756;SDS011;44294;48.282;14.282;2022-11-20T10:39:06;38.10;;;20.47;;
28756;SDS011;44294;48.282;14.282;2022-11-20T10:41:54;41.57;;;21.77;;
28756;SDS011;44294;48.282;14.282;2022-11-20T10:44:47;36.60;;;20.23;;
28756;SDS011;44294;48.282;14.282;2022-11-20T10:47:47;39.57;;;20.97;;
28756;SDS011;44294;48.282;14.282;2022-11-20T10:50:39;38.13;;;20.83;;
28756;SDS011;44294;48.282;14.282;2022-11-20T10:56:24;40.83;;;21.27;;
28756;SDS011;44294;48.282;14.282;2022-11-20T11:02:17;35.97;;;19.93;;
28756;SDS011;44294;48.282;14.282;2022-11-20T11:05:10;39.17;;;20.23;;
28756;SDS011;44294;48.282;14.282;2022-11-20T11:07:57;40.87;;;21.70;;
28756;SDS011;44294;48.282;14.282;2022-11-20T11:10:53;40.20;;;19.80;;
28756;SDS011;44294;48.282;14.282;2022-11-20T11:13:40;39.80;;;21.87;;
28756;SDS011;44294;48.282;14.282;2022-11-20T11:16:28;38.43;;;20.90;;
28756;SDS011;44294;48.282;14.282;2022-11-20T11:19:16;40.00;;;20.87;;
28756;SDS011;44294;48.282;14.282;2022-11-20T11:22:03;40.00;;;21.23;;
28756;SDS011;44294;48.282;14.282;2022-11-20T11:24:52;41.70;;;21.27;;
28756;SDS011;44294;48.282;14.282;2022-11-20T11:27:46;40.30;;;21.47;;
28756;SDS011;44294;48.282;14.282;2022-11-20T11:30:42;39.57;;;20.70;;
28756;SDS011;44294;48.282;14.282;2022-11-20T11:33:31;35.70;;;19.23;;
28756;SDS011;44294;48.282;14.282;2022-11-20T11:36:19;43.23;;;21.43;;
28756;SDS011;44294;48.282;14.282;2022-11-20T11:39:10;40.80;;;21.73;;
28756;SDS011;44294;48.282;14.282;2022-11-20T11:41:55;47.50;;;26.17;;
28756;SDS011;44294;48.282;14.282;2022-11-20T11:44:44;40.53;;;21.43;;
28756;SDS011;44294;48.282;14.282;2022-11-20T11:47:50;41.27;;;20.93;;
28756;SDS011;44294;48.282;14.282;2022-11-20T11:50:38;40.40;;;20.90;;
28756;SDS011;44294;48.282;14.282;2022-11-20T11:53:27;38.07;;;20.13;;
28756;SDS011;44294;48.282;14.282;2022-11-20T11:56:14;38.93;;;20.50;;
28756;SDS011;44294;48.282;14.282;2022-11-20T11:59:03;40.13;;;21.00;;
28756;SDS011;44294;48.282;14.282;2022-11-20T12:01:52;42.13;;;22.20;;
28756;SDS011;44294;48.282;14.282;2022-11-20T12:04:57;40.57;;;21.27;;
28756;SDS011;44294;48.282;14.282;2022-11-20T12:16:23;48.87;;;23.93;;
28756;SDS011;44294;48.282;14.282;2022-11-20T12:19:11;49.50;;;24.73;;
28756;SDS011;44294;48.282;14.282;2022-11-20T12:22:21;51.67;;;25.17;;
28756;SDS011;44294;48.282;14.282;2022-11-20T12:25:17;52.17;;;24.80;;
28756;SDS011;44294;48.282;14.282;2022-11-20T12:31:13;53.57;;;26.00;;
28756;SDS011;44294;48.282;14.282;2022-11-20T12:34:00;55.90;;;26.47;;
28756;SDS011;44294;48.282;14.282;2022-11-20T12:36:51;59.93;;;27.73;;
28756;SDS011;44294;48.282;14.282;2022-11-20T12:39:47;65.47;;;30.50;;
28756;SDS011;44294;48.282;14.282;2022-11-20T12:48:41;61.20;;;28.77;;
28756;SDS011;44294;48.282;14.282;2022-11-20T12:55:21;72.73;;;32.33;;
28756;SDS011;44294;48.282;14.282;2022-11-20T12:57:38;77.63;;;32.93;;
28756;SDS011;44294;48.282;14.282;2022-11-20T13:00:24;79.77;;;34.20;;
28756;SDS011;44294;48.282;14.282;2022-11-20T13:03:58;85.70;;;36.60;;
28756;SDS011;44294;48.282;14.282;2022-11-20T13:06:19;90.13;;;39.53;;
28756;SDS011;44294;48.282;14.282;2022-11-20T13:08:54;86.17;;;37.73;;
28756;SDS011;44294;48.282;14.282;2022-11-20T13:11:47;93.93;;;39.13;;
28756;SDS011;44294;48.282;14.282;2022-11-20T13:14:37;99.10;;;40.23;;
28756;SDS011;44294;48.282;14.282;2022-11-20T13:17:25;91.60;;;39.10;;
28756;SDS011;44294;48.282;14.282;2022-11-20T13:20:18;79.03;;;36.00;;
28756;SDS011;44294;48.282;14.282;2022-11-20T13:23:03;76.20;;;35.13;;
28756;SDS011;44294;48.282;14.282;2022-11-20T13:25:50;71.07;;;33.23;;
28756;SDS011;44294;48.282;14.282;2022-11-20T13:28:38;76.37;;;33.87;;
28756;SDS011;44294;48.282;14.282;2022-11-20T13:31:28;73.90;;;33.20;;
28756;SDS011;44294;48.282;14.282;2022-11-20T13:34:27;93.93;;;39.67;;
28756;SDS011;44294;48.282;14.282;2022-11-20T13:37:24;80.27;;;34.67;;
28756;SDS011;44294;48.282;14.282;2022-11-20T13:46:01;76.30;;;34.53;;
28756;SDS011;44294;48.282;14.282;2022-11-20T13:48:49;82.10;;;35.43;;
28756;SDS011;44294;48.282;14.282;2022-11-20T13:51:40;81.53;;;35.77;;
28756;SDS011;44294;48.282;14.282;2022-11-20T13:54:42;73.37;;;33.33;;
28756;SDS011;44294;48.282;14.282;2022-11-20T14:00:14;77.17;;;35.37;;
28756;SDS011;44294;48.282;14.282;2022-11-20T14:06:00;71.67;;;33.20;;
28756;SDS011;44294;48.282;14.282;2022-11-20T14:08:47;74.10;;;33.77;;
28756;SDS011;44294;48.282;14.282;2022-11-20T14:11:34;74.40;;;33.50;;
28756;SDS011;44294;48.282;14.282;2022-11-20T14:14:22;69.33;;;32.67;;
28756;SDS011;44294;48.282;14.282;2022-11-20T14:17:22;66.07;;;31.73;;
28756;SDS011;44294;48.282;14.282;2022-11-20T14:20:07;64.80;;;30.93;;
28756;SDS011;44294;48.282;14.282;2022-11-20T14:22:55;70.13;;;32.17;;
28756;SDS011;44294;48.282;14.282;2022-11-20T14:25:42;66.00;;;31.30;;
28756;SDS011;44294;48.282;14.282;2022-11-20T14:28:30;64.77;;;31.47;;
28756;SDS011;44294;48.282;14.282;2022-11-20T14:31:22;68.13;;;32.60;;
28756;SDS011;44294;48.282;14.282;2022-11-20T14:34:12;60.03;;;30.37;;
28756;SDS011;44294;48.282;14.282;2022-11-20T14:36:57;60.43;;;30.43;;
28756;SDS011;44294;48.282;14.282;2022-11-20T14:39:49;72.03;;;34.57;;
28756;SDS011;44294;48.282;14.282;2022-11-20T14:42:37;70.20;;;32.47;;
28756;SDS011;44294;48.282;14.282;2022-11-20T14:45:25;63.23;;;31.97;;
28756;SDS011;44294;48.282;14.282;2022-11-20T14:48:12;65.80;;;31.73;;
28756;SDS011;44294;48.282;14.282;2022-11-20T14:51:00;75.07;;;35.97;;
28756;SDS011;44294;48.282;14.282;2022-11-20T14:53:47;58.10;;;28.93;;
28756;SDS011;44294;48.282;14.282;2022-11-20T14:56:34;64.80;;;30.93;;
28756;SDS011;44294;48.282;14.282;2022-11-20T14:59:22;62.80;;;31.67;;
28756;SDS011;44294;48.282;14.282;2022-11-20T15:02:11;61.97;;;30.07;;
28756;SDS011;44294;48.282;14.282;2022-11-20T15:04:59;67.70;;;33.47;;
28756;SDS011;44294;48.282;14.282;2022-11-20T15:07:52;55.37;;;27.70;;
28756;SDS011;44294;48.282;14.282;2022-11-20T15:10:49;49.00;;;24.87;;
28756;SDS011;44294;48.282;14.282;2022-11-20T15:13:30;49.07;;;25.50;;
28756;SDS011;44294;48.282;14.282;2022-11-20T15:16:19;50.73;;;25.30;;
28756;SDS011;44294;48.282;14.282;2022-11-20T15:19:09;48.77;;;25.10;;
28756;SDS011;44294;48.282;14.282;2022-11-20T15:21:56;48.77;;;25.33;;
28756;SDS011;44294;48.282;14.282;2022-11-20T15:24:43;50.40;;;24.70;;
28756;SDS011;44294;48.282;14.282;2022-11-20T15:27:30;53.20;;;26.17;;
28756;SDS011;44294;48.282;14.282;2022-11-20T15:30:18;47.43;;;24.37;;
28756;SDS011;44294;48.282;14.282;2022-11-20T15:33:07;46.73;;;24.50;;
28756;SDS011;44294;48.282;14.282;2022-11-20T15:35:55;60.00;;;28.27;;
28756;SDS011;44294;48.282;14.282;2022-11-20T15:38:43;54.37;;;27.37;;
28756;SDS011;44294;48.282;14.282;2022-11-20T15:41:30;61.17;;;29.60;;
28756;SDS011;44294;48.282;14.282;2022-11-20T15:44:17;56.30;;;27.87;;
28756;SDS011;44294;48.282;14.282;2022-11-20T15:47:05;61.23;;;30.20;;
28756;SDS011;44294;48.282;14.282;2022-11-20T15:49:52;53.60;;;27.83;;
28756;SDS011;44294;48.282;14.282;2022-11-20T15:52:39;61.17;;;29.83;;
28756;SDS011;44294;48.282;14.282;2022-11-20T15:55:26;59.83;;;29.80;;
28756;SDS011;44294;48.282;14.282;2022-11-20T15:58:14;53.20;;;27.90;;
28756;SDS011;44294;48.282;14.282;2022-11-20T16:01:03;64.00;;;30.03;;
28756;SDS011;44294;48.282;14.282;2022-11-20T16:03:50;59.33;;;29.37;;
28756;SDS011;44294;48.282;14.282;2022-11-20T16:06:37;57.90;;;28.93;;
28756;SDS011;44294;48.282;14.282;2022-11-20T16:09:25;60.63;;;29.93;;
28756;SDS011;44294;48.282;14.282;2022-11-20T16:12:12;58.87;;;29.33;;
28756;SDS011;44294;48.282;14.282;2022-11-20T16:15:01;59.40;;;29.23;;
28756;SDS011;44294;48.282;14.282;2022-11-20T16:18:07;59.10;;;29.23;;
28756;SDS011;44294;48.282;14.282;2022-11-20T16:20:54;58.83;;;29.23;;
28756;SDS011;44294;48.282;14.282;2022-11-20T16:23:42;65.93;;;31.17;;
28756;SDS011;44294;48.282;14.282;2022-11-20T16:26:30;59.63;;;29.17;;
28756;SDS011;44294;48.282;14.282;2022-11-20T16:29:18;71.67;;;32.43;;
28756;SDS011;44294;48.282;14.282;2022-11-20T16:32:05;65.10;;;31.13;;
28756;SDS011;44294;48.282;14.282;2022-11-20T16:34:53;61.03;;;29.80;;
28756;SDS011;44294;48.282;14.282;2022-11-20T16:37:40;60.03;;;29.00;;
28756;SDS011;44294;48.282;14.282;2022-11-20T16:40:29;69.33;;;32.90;;
28756;SDS011;44294;48.282;14.282;2022-11-20T16:43:16;63.33;;;30.83;;
28756;SDS011;44294;48.282;14.282;2022-11-20T16:46:03;59.07;;;28.80;;
28756;SDS011;44294;48.282;14.282;2022-11-20T16:51:43;66.00;;;29.97;;
28756;SDS011;44294;48.282;14.282;2022-11-20T16:54:30;68.63;;;32.10;;
28756;SDS011;44294;48.282;14.282;2022-11-20T16:57:18;61.67;;;29.33;;
28756;SDS011;44294;48.282;14.282;2022-11-20T17:00:05;59.63;;;27.83;;
28756;SDS011;44294;48.282;14.282;2022-11-20T17:02:53;55.90;;;27.93;;
28756;SDS011;44294;48.282;14.282;2022-11-20T17:05:40;66.30;;;31.97;;
28756;SDS011;44294;48.282;14.282;2022-11-20T17:08:28;61.33;;;29.10;;
28756;SDS011;44294;48.282;14.282;2022-11-20T17:11:16;58.77;;;28.13;;
28756;SDS011;44294;48.282;14.282;2022-11-20T17:14:04;59.67;;;28.47;;